sensor_id;sensor_type;location;lat;lon;timestamp;temperature;humidity
13806;DHT22;6974;53.606;9.872;2022-07-29T00:00:14;15.80;99.90
13806;DHT22;6974;53.606;9.872;2022-07-29T00:02:41;15.80;99.90
13806;DHT22;6974;53.606;9.872;2022-07-29T00:05:08;15.80;99.90
13806;DHT22;6974;53.606;9.872;2022-07-29T00:07:36;15.70;99.90
13806;DHT22;6974;53.606;9.872;2022-07-29T00:10:04;15.70;99.90
13806;DHT22;6974;53.606;9.872;2022-07-29T00:12:31;15.70;99.90
13806;DHT22;6974;53.606;9.872;2022-07-29T00:14:58;15.60;99.90
13806;DHT22;6974;53.606;9.872;2022-07-29T00:17:25;15.60;99.90
13806;DHT22;6974;53.606;9.872;2022-07-29T00:19:52;15.60;99.90
13806;DHT22;6974;53.606;9.872;2022-07-29T00:22:20;15.60;99.90
13806;DHT22;6974;53.606;9.872;2022-07-29T00:24:48;15.50;99.90
13806;DHT22;6974;53.606;9.872;2022-07-29T00:27:15;15.50;99.90
13806;DHT22;6974;53.606;9.872;2022-07-29T00:29:42;15.50;99.90
13806;DHT22;6974;53.606;9.872;2022-07-29T00:32:09;15.40;99.90
13806;DHT22;6974;53.606;9.872;2022-07-29T00:34:36;15.40;99.90
13806;DHT22;6974;53.606;9.872;2022-07-29T00:37:20;15.40;99.90
13806;DHT22;6974;53.606;9.872;2022-07-29T00:39:48;15.40;99.90
13806;DHT22;6974;53.606;9.872;2022-07-29T00:42:16;15.30;99.90
13806;DHT22;6974;53.606;9.872;2022-07-29T00:44:43;15.30;99.90
13806;DHT22;6974;53.606;9.872;2022-07-29T00:47:10;15.20;99.90
13806;DHT22;6974;53.606;9.872;2022-07-29T00:49:38;15.20;99.90
13806;DHT22;6974;53.606;9.872;2022-07-29T00:52:07;15.20;99.90
13806;DHT22;6974;53.606;9.872;2022-07-29T00:54:34;15.20;99.90
13806;DHT22;6974;53.606;9.872;2022-07-29T00:57:02;15.10;99.90
13806;DHT22;6974;53.606;9.872;2022-07-29T00:59:29;15.10;99.90
13806;DHT22;6974;53.606;9.872;2022-07-29T01:01:56;15.10;99.90
13806;DHT22;6974;53.606;9.872;2022-07-29T01:04:23;15.10;99.90
13806;DHT22;6974;53.606;9.872;2022-07-29T01:06:50;15.10;99.90
13806;DHT22;6974;53.606;9.872;2022-07-29T01:09:18;15.00;99.90
13806;DHT22;6974;53.606;9.872;2022-07-29T01:11:46;15.00;99.90
13806;DHT22;6974;53.606;9.872;2022-07-29T01:14:15;15.00;99.90
13806;DHT22;6974;53.606;9.872;2022-07-29T01:16:48;15.00;99.90
13806;DHT22;6974;53.606;9.872;2022-07-29T01:19:31;15.00;99.90
13806;DHT22;6974;53.606;9.872;2022-07-29T01:22:09;15.00;99.90
13806;DHT22;6974;53.606;9.872;2022-07-29T01:24:48;14.90;99.90
13806;DHT22;6974;53.606;9.872;2022-07-29T01:27:38;15.00;99.90
13806;DHT22;6974;53.606;9.872;2022-07-29T01:30:07;15.00;99.90
13806;DHT22;6974;53.606;9.872;2022-07-29T01:32:37;15.00;99.90
13806;DHT22;6974;53.606;9.872;2022-07-29T01:35:10;15.00;99.90
13806;DHT22;6974;53.606;9.872;2022-07-29T01:37:57;15.00;99.90
13806;DHT22;6974;53.606;9.872;2022-07-29T01:40:30;15.00;99.90
13806;DHT22;6974;53.606;9.872;2022-07-29T01:43:01;15.00;99.90
13806;DHT22;6974;53.606;9.872;2022-07-29T01:45:38;15.00;99.90
13806;DHT22;6974;53.606;9.872;2022-07-29T01:48:11;15.00;99.90
13806;DHT22;6974;53.606;9.872;2022-07-29T01:50:45;15.00;99.90
13806;DHT22;6974;53.606;9.872;2022-07-29T01:53:18;14.90;99.90
13806;DHT22;6974;53.606;9.872;2022-07-29T01:55:48;15.00;99.90
13806;DHT22;6974;53.606;9.872;2022-07-29T01:58:18;15.00;99.90
13806;DHT22;6974;53.606;9.872;2022-07-29T02:00:48;15.00;99.90
13806;DHT22;6974;53.606;9.872;2022-07-29T02:03:17;15.00;99.90
13806;DHT22;6974;53.606;9.872;2022-07-29T02:05:46;15.00;99.90
13806;DHT22;6974;53.606;9.872;2022-07-29T02:08:15;15.00;99.90
13806;DHT22;6974;53.606;9.872;2022-07-29T02:10:44;15.00;99.90
13806;DHT22;6974;53.606;9.872;2022-07-29T02:13:13;15.00;99.90
13806;DHT22;6974;53.606;9.872;2022-07-29T02:15:42;15.00;99.90
13806;DHT22;6974;53.606;9.872;2022-07-29T02:18:14;15.10;99.90
13806;DHT22;6974;53.606;9.872;2022-07-29T02:20:43;15.10;99.90
13806;DHT22;6974;53.606;9.872;2022-07-29T02:23:12;15.20;99.90
13806;DHT22;6974;53.606;9.872;2022-07-29T02:25:42;15.20;99.90
13806;DHT22;6974;53.606;9.872;2022-07-29T02:28:12;15.30;99.90
13806;DHT22;6974;53.606;9.872;2022-07-29T02:30:41;15.30;99.90
13806;DHT22;6974;53.606;9.872;2022-07-29T02:33:13;15.30;99.90
13806;DHT22;6974;53.606;9.872;2022-07-29T02:35:42;15.30;99.90
13806;DHT22;6974;53.606;9.872;2022-07-29T02:38:13;15.30;99.90
13806;DHT22;6974;53.606;9.872;2022-07-29T02:41:00;15.30;99.90
13806;DHT22;6974;53.606;9.872;2022-07-29T02:43:28;15.30;99.90
13806;DHT22;6974;53.606;9.872;2022-07-29T02:45:56;15.30;99.90
13806;DHT22;6974;53.606;9.872;2022-07-29T02:48:32;15.30;99.90
13806;DHT22;6974;53.606;9.872;2022-07-29T02:51:05;15.30;99.90
13806;DHT22;6974;53.606;9.872;2022-07-29T02:53:33;15.30;99.90
13806;DHT22;6974;53.606;9.872;2022-07-29T02:56:06;15.30;99.90
13806;DHT22;6974;53.606;9.872;2022-07-29T02:58:35;15.30;99.90
13806;DHT22;6974;53.606;9.872;2022-07-29T03:01:10;15.30;99.90
13806;DHT22;6974;53.606;9.872;2022-07-29T03:03:40;15.30;99.90
13806;DHT22;6974;53.606;9.872;2022-07-29T03:06:09;15.30;99.90
13806;DHT22;6974;53.606;9.872;2022-07-29T03:08:38;15.30;99.90
13806;DHT22;6974;53.606;9.872;2022-07-29T03:11:06;15.30;99.90
13806;DHT22;6974;53.606;9.872;2022-07-29T03:13:35;15.30;99.90
13806;DHT22;6974;53.606;9.872;2022-07-29T03:16:04;15.30;99.90
13806;DHT22;6974;53.606;9.872;2022-07-29T03:18:31;15.30;99.90
13806;DHT22;6974;53.606;9.872;2022-07-29T03:21:00;15.30;99.90
13806;DHT22;6974;53.606;9.872;2022-07-29T03:23:27;15.30;99.90
13806;DHT22;6974;53.606;9.872;2022-07-29T03:25:54;15.30;99.90
13806;DHT22;6974;53.606;9.872;2022-07-29T03:28:21;15.30;99.90
13806;DHT22;6974;53.606;9.872;2022-07-29T03:30:49;15.30;99.90
13806;DHT22;6974;53.606;9.872;2022-07-29T03:33:16;15.30;99.90
13806;DHT22;6974;53.606;9.872;2022-07-29T03:35:43;15.30;99.90
13806;DHT22;6974;53.606;9.872;2022-07-29T03:38:11;15.40;99.90
13806;DHT22;6974;53.606;9.872;2022-07-29T03:40:40;15.30;99.90
13806;DHT22;6974;53.606;9.872;2022-07-29T03:43:10;15.30;99.90
13806;DHT22;6974;53.606;9.872;2022-07-29T03:45:38;15.30;99.90
13806;DHT22;6974;53.606;9.872;2022-07-29T03:48:10;15.40;99.90
13806;DHT22;6974;53.606;9.872;2022-07-29T03:50:37;15.30;99.90
13806;DHT22;6974;53.606;9.872;2022-07-29T03:53:04;15.30;99.90
13806;DHT22;6974;53.606;9.872;2022-07-29T03:55:36;15.40;99.90
13806;DHT22;6974;53.606;9.872;2022-07-29T03:58:04;15.30;99.90
13806;DHT22;6974;53.606;9.872;2022-07-29T04:00:32;15.30;99.90
13806;DHT22;6974;53.606;9.872;2022-07-29T04:02:59;15.40;99.90
13806;DHT22;6974;53.606;9.872;2022-07-29T04:05:26;15.40;99.90
13806;DHT22;6974;53.606;9.872;2022-07-29T04:07:53;15.40;99.90
13806;DHT22;6974;53.606;9.872;2022-07-29T04:10:20;15.40;99.90
13806;DHT22;6974;53.606;9.872;2022-07-29T04:12:49;15.40;99.90
13806;DHT22;6974;53.606;9.872;2022-07-29T04:15:16;15.50;99.90
13806;DHT22;6974;53.606;9.872;2022-07-29T04:17:43;15.50;99.90
13806;DHT22;6974;53.606;9.872;2022-07-29T04:20:11;15.50;99.90
13806;DHT22;6974;53.606;9.872;2022-07-29T04:22:38;15.50;99.90
13806;DHT22;6974;53.606;9.872;2022-07-29T04:25:06;15.50;99.90
13806;DHT22;6974;53.606;9.872;2022-07-29T04:27:32;15.50;99.90
13806;DHT22;6974;53.606;9.872;2022-07-29T04:30:01;15.50;99.90
13806;DHT22;6974;53.606;9.872;2022-07-29T04:32:28;15.50;99.90
13806;DHT22;6974;53.606;9.872;2022-07-29T04:34:55;15.60;99.90
13806;DHT22;6974;53.606;9.872;2022-07-29T04:37:22;15.60;99.90
13806;DHT22;6974;53.606;9.872;2022-07-29T04:39:48;15.60;99.90
13806;DHT22;6974;53.606;9.872;2022-07-29T04:42:16;15.70;99.90
13806;DHT22;6974;53.606;9.872;2022-07-29T04:44:42;15.70;99.90
13806;DHT22;6974;53.606;9.872;2022-07-29T04:47:10;15.70;99.90
13806;DHT22;6974;53.606;9.872;2022-07-29T04:49:38;15.70;99.90
13806;DHT22;6974;53.606;9.872;2022-07-29T04:52:05;15.70;99.90
13806;DHT22;6974;53.606;9.872;2022-07-29T04:54:32;15.70;99.90
13806;DHT22;6974;53.606;9.872;2022-07-29T04:56:59;15.80;99.90
13806;DHT22;6974;53.606;9.872;2022-07-29T04:59:26;15.80;99.90
13806;DHT22;6974;53.606;9.872;2022-07-29T05:01:53;15.80;99.90
13806;DHT22;6974;53.606;9.872;2022-07-29T05:04:21;15.90;99.90
13806;DHT22;6974;53.606;9.872;2022-07-29T05:06:48;15.90;99.90
13806;DHT22;6974;53.606;9.872;2022-07-29T05:09:15;15.90;99.90
13806;DHT22;6974;53.606;9.872;2022-07-29T05:11:42;16.00;99.90
13806;DHT22;6974;53.606;9.872;2022-07-29T05:14:08;16.00;99.90
13806;DHT22;6974;53.606;9.872;2022-07-29T05:16:35;16.00;99.90
13806;DHT22;6974;53.606;9.872;2022-07-29T05:19:03;16.00;99.90
13806;DHT22;6974;53.606;9.872;2022-07-29T05:21:31;16.10;99.90
13806;DHT22;6974;53.606;9.872;2022-07-29T05:23:58;16.10;99.90
13806;DHT22;6974;53.606;9.872;2022-07-29T05:26:24;16.10;99.90
13806;DHT22;6974;53.606;9.872;2022-07-29T05:28:51;16.10;99.90
13806;DHT22;6974;53.606;9.872;2022-07-29T05:31:19;16.10;99.90
13806;DHT22;6974;53.606;9.872;2022-07-29T05:33:46;16.10;99.90
13806;DHT22;6974;53.606;9.872;2022-07-29T05:36:12;16.10;99.90
13806;DHT22;6974;53.606;9.872;2022-07-29T05:38:41;16.20;99.90
13806;DHT22;6974;53.606;9.872;2022-07-29T05:41:07;16.20;99.90
13806;DHT22;6974;53.606;9.872;2022-07-29T05:43:34;16.20;99.90
13806;DHT22;6974;53.606;9.872;2022-07-29T05:46:01;16.30;99.90
13806;DHT22;6974;53.606;9.872;2022-07-29T05:48:28;16.40;99.90
13806;DHT22;6974;53.606;9.872;2022-07-29T05:50:55;16.30;99.90
13806;DHT22;6974;53.606;9.872;2022-07-29T05:53:22;16.40;99.90
13806;DHT22;6974;53.606;9.872;2022-07-29T05:55:50;16.50;99.90
13806;DHT22;6974;53.606;9.872;2022-07-29T05:58:17;16.60;99.90
13806;DHT22;6974;53.606;9.872;2022-07-29T06:00:44;16.60;99.90
13806;DHT22;6974;53.606;9.872;2022-07-29T06:03:11;16.70;99.90
13806;DHT22;6974;53.606;9.872;2022-07-29T06:05:38;16.70;99.90
13806;DHT22;6974;53.606;9.872;2022-07-29T06:08:05;16.80;99.90
13806;DHT22;6974;53.606;9.872;2022-07-29T06:10:32;16.80;99.90
13806;DHT22;6974;53.606;9.872;2022-07-29T06:13:00;16.80;99.90
13806;DHT22;6974;53.606;9.872;2022-07-29T06:15:27;16.80;99.90
13806;DHT22;6974;53.606;9.872;2022-07-29T06:17:54;16.80;99.90
13806;DHT22;6974;53.606;9.872;2022-07-29T06:20:21;16.80;99.90
13806;DHT22;6974;53.606;9.872;2022-07-29T06:22:48;17.00;99.90
13806;DHT22;6974;53.606;9.872;2022-07-29T06:25:14;17.00;99.90
13806;DHT22;6974;53.606;9.872;2022-07-29T06:27:41;17.10;99.90
13806;DHT22;6974;53.606;9.872;2022-07-29T06:30:10;17.10;99.90
13806;DHT22;6974;53.606;9.872;2022-07-29T06:32:37;17.30;99.90
13806;DHT22;6974;53.606;9.872;2022-07-29T06:35:05;17.30;99.90
13806;DHT22;6974;53.606;9.872;2022-07-29T06:37:32;17.30;99.90
13806;DHT22;6974;53.606;9.872;2022-07-29T06:40:00;17.30;99.90
13806;DHT22;6974;53.606;9.872;2022-07-29T06:42:44;17.40;99.90
13806;DHT22;6974;53.606;9.872;2022-07-29T06:45:12;17.40;99.90
13806;DHT22;6974;53.606;9.872;2022-07-29T06:47:39;17.40;99.90
13806;DHT22;6974;53.606;9.872;2022-07-29T06:50:07;17.50;99.90
13806;DHT22;6974;53.606;9.872;2022-07-29T06:52:37;17.60;99.90
13806;DHT22;6974;53.606;9.872;2022-07-29T06:55:04;17.60;99.90
13806;DHT22;6974;53.606;9.872;2022-07-29T06:57:31;17.70;99.90
13806;DHT22;6974;53.606;9.872;2022-07-29T06:59:58;17.70;99.90
13806;DHT22;6974;53.606;9.872;2022-07-29T07:02:27;17.80;99.90
13806;DHT22;6974;53.606;9.872;2022-07-29T07:04:54;17.80;99.90
13806;DHT22;6974;53.606;9.872;2022-07-29T07:07:21;17.90;99.90
13806;DHT22;6974;53.606;9.872;2022-07-29T07:09:48;17.90;99.90
13806;DHT22;6974;53.606;9.872;2022-07-29T07:12:15;18.10;99.90
13806;DHT22;6974;53.606;9.872;2022-07-29T07:14:42;18.20;99.90
13806;DHT22;6974;53.606;9.872;2022-07-29T07:17:08;18.30;99.90
13806;DHT22;6974;53.606;9.872;2022-07-29T07:19:37;18.40;99.90
13806;DHT22;6974;53.606;9.872;2022-07-29T07:22:03;18.50;99.90
13806;DHT22;6974;53.606;9.872;2022-07-29T07:24:30;18.50;99.90
13806;DHT22;6974;53.606;9.872;2022-07-29T07:26:57;18.60;99.90
13806;DHT22;6974;53.606;9.872;2022-07-29T07:29:24;18.70;99.90
13806;DHT22;6974;53.606;9.872;2022-07-29T07:31:51;18.80;99.90
13806;DHT22;6974;53.606;9.872;2022-07-29T07:34:18;18.80;99.90
13806;DHT22;6974;53.606;9.872;2022-07-29T07:36:46;18.90;99.90
13806;DHT22;6974;53.606;9.872;2022-07-29T07:39:12;19.00;99.90
13806;DHT22;6974;53.606;9.872;2022-07-29T07:41:39;19.00;99.90
13806;DHT22;6974;53.606;9.872;2022-07-29T07:44:06;19.10;99.90
13806;DHT22;6974;53.606;9.872;2022-07-29T07:46:33;19.00;99.90
13806;DHT22;6974;53.606;9.872;2022-07-29T07:49:00;19.10;99.90
13806;DHT22;6974;53.606;9.872;2022-07-29T07:51:26;19.10;99.90
13806;DHT22;6974;53.606;9.872;2022-07-29T07:53:55;19.10;99.90
13806;DHT22;6974;53.606;9.872;2022-07-29T07:56:21;19.10;99.90
13806;DHT22;6974;53.606;9.872;2022-07-29T07:58:48;19.20;99.90
13806;DHT22;6974;53.606;9.872;2022-07-29T08:01:15;19.20;99.90
13806;DHT22;6974;53.606;9.872;2022-07-29T08:03:44;19.20;99.90
13806;DHT22;6974;53.606;9.872;2022-07-29T08:06:11;19.30;99.90
13806;DHT22;6974;53.606;9.872;2022-07-29T08:08:37;19.30;99.90
13806;DHT22;6974;53.606;9.872;2022-07-29T08:11:06;19.40;99.90
13806;DHT22;6974;53.606;9.872;2022-07-29T08:13:32;19.50;99.90
13806;DHT22;6974;53.606;9.872;2022-07-29T08:15:59;19.50;99.90
13806;DHT22;6974;53.606;9.872;2022-07-29T08:18:28;19.50;99.90
13806;DHT22;6974;53.606;9.872;2022-07-29T08:20:56;19.60;99.90
13806;DHT22;6974;53.606;9.872;2022-07-29T08:23:23;19.60;99.90
13806;DHT22;6974;53.606;9.872;2022-07-29T08:25:49;19.80;99.90
13806;DHT22;6974;53.606;9.872;2022-07-29T08:28:18;19.90;99.90
13806;DHT22;6974;53.606;9.872;2022-07-29T08:30:44;20.00;99.90
13806;DHT22;6974;53.606;9.872;2022-07-29T08:33:11;20.10;99.90
13806;DHT22;6974;53.606;9.872;2022-07-29T08:35:38;20.20;99.90
13806;DHT22;6974;53.606;9.872;2022-07-29T08:38:06;20.30;99.90
13806;DHT22;6974;53.606;9.872;2022-07-29T08:40:32;20.40;99.90
13806;DHT22;6974;53.606;9.872;2022-07-29T08:43:04;20.50;99.90
13806;DHT22;6974;53.606;9.872;2022-07-29T08:45:40;20.60;99.90
13806;DHT22;6974;53.606;9.872;2022-07-29T08:48:07;20.90;99.90
13806;DHT22;6974;53.606;9.872;2022-07-29T08:50:35;20.90;99.90
13806;DHT22;6974;53.606;9.872;2022-07-29T08:53:02;21.00;99.90
13806;DHT22;6974;53.606;9.872;2022-07-29T08:55:29;21.10;99.90
13806;DHT22;6974;53.606;9.872;2022-07-29T08:57:56;21.30;99.90
13806;DHT22;6974;53.606;9.872;2022-07-29T09:00:25;21.40;99.90
13806;DHT22;6974;53.606;9.872;2022-07-29T09:02:57;21.50;99.90
13806;DHT22;6974;53.606;9.872;2022-07-29T09:05:26;21.70;99.90
13806;DHT22;6974;53.606;9.872;2022-07-29T09:07:53;21.90;99.90
13806;DHT22;6974;53.606;9.872;2022-07-29T09:10:20;22.10;99.90
13806;DHT22;6974;53.606;9.872;2022-07-29T09:12:47;22.30;99.90
13806;DHT22;6974;53.606;9.872;2022-07-29T09:15:15;22.30;99.90
13806;DHT22;6974;53.606;9.872;2022-07-29T09:17:43;22.40;99.90
13806;DHT22;6974;53.606;9.872;2022-07-29T09:20:16;22.50;99.90
13806;DHT22;6974;53.606;9.872;2022-07-29T09:22:43;22.70;99.90
13806;DHT22;6974;53.606;9.872;2022-07-29T09:25:12;22.90;99.90
13806;DHT22;6974;53.606;9.872;2022-07-29T09:27:39;23.10;99.90
13806;DHT22;6974;53.606;9.872;2022-07-29T09:30:08;23.20;99.90
13806;DHT22;6974;53.606;9.872;2022-07-29T09:32:54;23.20;99.90
13806;DHT22;6974;53.606;9.872;2022-07-29T09:35:24;23.20;99.90
13806;DHT22;6974;53.606;9.872;2022-07-29T09:37:52;23.10;99.90
13806;DHT22;6974;53.606;9.872;2022-07-29T09:40:20;23.10;99.90
13806;DHT22;6974;53.606;9.872;2022-07-29T09:42:48;23.00;99.90
13806;DHT22;6974;53.606;9.872;2022-07-29T09:45:27;22.90;99.90
13806;DHT22;6974;53.606;9.872;2022-07-29T09:47:54;22.90;99.90
13806;DHT22;6974;53.606;9.872;2022-07-29T09:50:36;22.90;99.90
13806;DHT22;6974;53.606;9.872;2022-07-29T09:53:03;22.90;99.90
13806;DHT22;6974;53.606;9.872;2022-07-29T09:55:30;22.80;99.90
13806;DHT22;6974;53.606;9.872;2022-07-29T09:58:15;22.70;99.90
13806;DHT22;6974;53.606;9.872;2022-07-29T10:00:43;22.70;99.90
13806;DHT22;6974;53.606;9.872;2022-07-29T10:03:10;22.70;99.90
13806;DHT22;6974;53.606;9.872;2022-07-29T10:05:38;22.80;99.90
13806;DHT22;6974;53.606;9.872;2022-07-29T10:08:08;22.70;99.90
13806;DHT22;6974;53.606;9.872;2022-07-29T10:10:36;22.60;99.90
13806;DHT22;6974;53.606;9.872;2022-07-29T10:13:05;22.70;99.90
13806;DHT22;6974;53.606;9.872;2022-07-29T10:15:35;22.70;99.90
13806;DHT22;6974;53.606;9.872;2022-07-29T10:18:05;22.60;99.90
13806;DHT22;6974;53.606;9.872;2022-07-29T10:20:32;22.60;99.90
13806;DHT22;6974;53.606;9.872;2022-07-29T10:23:00;22.50;99.90
13806;DHT22;6974;53.606;9.872;2022-07-29T10:25:27;22.50;99.90
13806;DHT22;6974;53.606;9.872;2022-07-29T10:27:54;22.50;99.90
13806;DHT22;6974;53.606;9.872;2022-07-29T10:30:23;22.40;99.90
13806;DHT22;6974;53.606;9.872;2022-07-29T10:33:10;22.40;99.90
13806;DHT22;6974;53.606;9.872;2022-07-29T10:35:48;22.40;99.90
13806;DHT22;6974;53.606;9.872;2022-07-29T10:38:42;22.30;99.90
13806;DHT22;6974;53.606;9.872;2022-07-29T10:41:17;22.40;99.90
13806;DHT22;6974;53.606;9.872;2022-07-29T10:43:58;22.30;99.90
13806;DHT22;6974;53.606;9.872;2022-07-29T10:46:26;22.30;99.90
13806;DHT22;6974;53.606;9.872;2022-07-29T10:49:10;22.20;99.90
13806;DHT22;6974;53.606;9.872;2022-07-29T10:51:57;22.20;99.90
13806;DHT22;6974;53.606;9.872;2022-07-29T10:54:44;22.20;99.90
13806;DHT22;6974;53.606;9.872;2022-07-29T10:57:28;22.20;99.90
13806;DHT22;6974;53.606;9.872;2022-07-29T11:00:30;22.30;99.90
13806;DHT22;6974;53.606;9.872;2022-07-29T11:02:57;22.40;99.90
13806;DHT22;6974;53.606;9.872;2022-07-29T11:05:24;22.50;99.90
13806;DHT22;6974;53.606;9.872;2022-07-29T11:08:23;22.50;99.90
13806;DHT22;6974;53.606;9.872;2022-07-29T11:11:29;22.60;99.90
13806;DHT22;6974;53.606;9.872;2022-07-29T11:13:50;22.60;99.90
13806;DHT22;6974;53.606;9.872;2022-07-29T11:16:18;22.70;99.90
13806;DHT22;6974;53.606;9.872;2022-07-29T11:19:20;22.80;99.90
13806;DHT22;6974;53.606;9.872;2022-07-29T11:21:49;23.00;99.90
13806;DHT22;6974;53.606;9.872;2022-07-29T11:24:19;23.40;99.90
13806;DHT22;6974;53.606;9.872;2022-07-29T11:27:09;23.90;99.90
13806;DHT22;6974;53.606;9.872;2022-07-29T11:29:40;24.40;99.90
13806;DHT22;6974;53.606;9.872;2022-07-29T11:32:11;24.70;99.90
13806;DHT22;6974;53.606;9.872;2022-07-29T11:34:40;24.90;99.90
13806;DHT22;6974;53.606;9.872;2022-07-29T11:37:19;25.00;99.90
13806;DHT22;6974;53.606;9.872;2022-07-29T11:40:14;25.20;99.90
13806;DHT22;6974;53.606;9.872;2022-07-29T11:42:49;25.40;99.90
13806;DHT22;6974;53.606;9.872;2022-07-29T11:45:19;25.40;99.90
13806;DHT22;6974;53.606;9.872;2022-07-29T11:47:51;25.40;99.90
13806;DHT22;6974;53.606;9.872;2022-07-29T11:50:28;25.30;99.90
13806;DHT22;6974;53.606;9.872;2022-07-29T11:52:55;25.20;99.90
13806;DHT22;6974;53.606;9.872;2022-07-29T11:55:23;25.00;99.90
13806;DHT22;6974;53.606;9.872;2022-07-29T11:57:53;24.90;99.90
13806;DHT22;6974;53.606;9.872;2022-07-29T12:00:23;24.90;99.90
13806;DHT22;6974;53.606;9.872;2022-07-29T12:02:51;24.80;99.90
13806;DHT22;6974;53.606;9.872;2022-07-29T12:05:18;24.80;99.90
13806;DHT22;6974;53.606;9.872;2022-07-29T12:07:45;24.90;99.90
13806;DHT22;6974;53.606;9.872;2022-07-29T12:10:13;25.10;99.90
13806;DHT22;6974;53.606;9.872;2022-07-29T12:12:39;25.30;99.90
13806;DHT22;6974;53.606;9.872;2022-07-29T12:15:18;25.60;99.90
13806;DHT22;6974;53.606;9.872;2022-07-29T12:17:46;26.00;99.90
13806;DHT22;6974;53.606;9.872;2022-07-29T12:20:22;26.30;99.90
13806;DHT22;6974;53.606;9.872;2022-07-29T12:22:49;26.60;99.90
13806;DHT22;6974;53.606;9.872;2022-07-29T12:25:16;26.80;99.90
13806;DHT22;6974;53.606;9.872;2022-07-29T12:27:44;27.00;99.90
13806;DHT22;6974;53.606;9.872;2022-07-29T12:30:13;27.10;99.90
13806;DHT22;6974;53.606;9.872;2022-07-29T12:32:43;27.20;99.90
13806;DHT22;6974;53.606;9.872;2022-07-29T12:35:12;27.20;99.90
13806;DHT22;6974;53.606;9.872;2022-07-29T12:37:41;27.10;99.90
13806;DHT22;6974;53.606;9.872;2022-07-29T12:40:09;26.80;99.90
13806;DHT22;6974;53.606;9.872;2022-07-29T12:42:36;26.60;99.90
13806;DHT22;6974;53.606;9.872;2022-07-29T12:45:04;26.30;99.90
13806;DHT22;6974;53.606;9.872;2022-07-29T12:47:32;26.20;99.90
13806;DHT22;6974;53.606;9.872;2022-07-29T12:50:11;26.20;99.90
13806;DHT22;6974;53.606;9.872;2022-07-29T12:52:40;26.40;99.90
13806;DHT22;6974;53.606;9.872;2022-07-29T12:55:07;26.60;99.90
13806;DHT22;6974;53.606;9.872;2022-07-29T12:57:45;26.60;99.90
13806;DHT22;6974;53.606;9.872;2022-07-29T13:00:13;26.80;99.90
13806;DHT22;6974;53.606;9.872;2022-07-29T13:02:42;26.80;99.90
13806;DHT22;6974;53.606;9.872;2022-07-29T13:05:10;26.90;99.90
13806;DHT22;6974;53.606;9.872;2022-07-29T13:07:38;27.00;99.90
13806;DHT22;6974;53.606;9.872;2022-07-29T13:10:14;26.90;99.90
13806;DHT22;6974;53.606;9.872;2022-07-29T13:13:06;26.80;99.90
13806;DHT22;6974;53.606;9.872;2022-07-29T13:15:34;26.80;99.90
13806;DHT22;6974;53.606;9.872;2022-07-29T13:18:01;26.90;99.90
13806;DHT22;6974;53.606;9.872;2022-07-29T13:20:29;27.00;99.90
13806;DHT22;6974;53.606;9.872;2022-07-29T13:22:57;27.10;99.90
13806;DHT22;6974;53.606;9.872;2022-07-29T13:25:25;27.20;99.90
13806;DHT22;6974;53.606;9.872;2022-07-29T13:27:52;27.40;99.90
13806;DHT22;6974;53.606;9.872;2022-07-29T13:30:21;27.60;99.90
13806;DHT22;6974;53.606;9.872;2022-07-29T13:32:49;27.80;99.90
13806;DHT22;6974;53.606;9.872;2022-07-29T13:35:16;27.80;99.90
13806;DHT22;6974;53.606;9.872;2022-07-29T13:37:45;27.90;99.90
13806;DHT22;6974;53.606;9.872;2022-07-29T13:40:13;27.90;99.90
13806;DHT22;6974;53.606;9.872;2022-07-29T13:42:40;27.90;99.90
13806;DHT22;6974;53.606;9.872;2022-07-29T13:45:09;27.90;99.90
13806;DHT22;6974;53.606;9.872;2022-07-29T13:47:36;27.90;99.90
13806;DHT22;6974;53.606;9.872;2022-07-29T13:50:05;27.90;99.90
13806;DHT22;6974;53.606;9.872;2022-07-29T13:52:32;27.60;99.90
13806;DHT22;6974;53.606;9.872;2022-07-29T13:55:01;27.30;99.90
13806;DHT22;6974;53.606;9.872;2022-07-29T13:57:28;27.10;99.90
13806;DHT22;6974;53.606;9.872;2022-07-29T13:59:55;26.80;99.90
13806;DHT22;6974;53.606;9.872;2022-07-29T14:02:22;26.60;99.90
13806;DHT22;6974;53.606;9.872;2022-07-29T14:04:49;26.60;99.90
13806;DHT22;6974;53.606;9.872;2022-07-29T14:07:16;26.40;99.90
13806;DHT22;6974;53.606;9.872;2022-07-29T14:09:42;26.10;99.90
13806;DHT22;6974;53.606;9.872;2022-07-29T14:12:11;25.90;99.90
13806;DHT22;6974;53.606;9.872;2022-07-29T14:14:38;25.90;99.90
13806;DHT22;6974;53.606;9.872;2022-07-29T14:17:04;25.70;99.90
13806;DHT22;6974;53.606;9.872;2022-07-29T14:19:32;25.70;99.90
13806;DHT22;6974;53.606;9.872;2022-07-29T14:22:02;25.60;99.90
13806;DHT22;6974;53.606;9.872;2022-07-29T14:24:29;25.50;99.90
13806;DHT22;6974;53.606;9.872;2022-07-29T14:26:55;25.40;99.90
13806;DHT22;6974;53.606;9.872;2022-07-29T14:29:24;25.40;99.90
13806;DHT22;6974;53.606;9.872;2022-07-29T14:31:51;25.40;99.90
13806;DHT22;6974;53.606;9.872;2022-07-29T14:34:17;25.30;99.90
13806;DHT22;6974;53.606;9.872;2022-07-29T14:36:44;25.20;99.90
13806;DHT22;6974;53.606;9.872;2022-07-29T14:39:11;25.20;99.90
13806;DHT22;6974;53.606;9.872;2022-07-29T14:41:38;25.20;99.90
13806;DHT22;6974;53.606;9.872;2022-07-29T14:44:05;25.10;99.90
13806;DHT22;6974;53.606;9.872;2022-07-29T14:46:33;25.20;99.90
13806;DHT22;6974;53.606;9.872;2022-07-29T14:49:00;25.20;99.90
13806;DHT22;6974;53.606;9.872;2022-07-29T14:51:27;25.30;99.90
13806;DHT22;6974;53.606;9.872;2022-07-29T14:53:54;25.40;99.90
13806;DHT22;6974;53.606;9.872;2022-07-29T14:56:21;25.70;99.90
13806;DHT22;6974;53.606;9.872;2022-07-29T14:58:48;26.00;99.90
13806;DHT22;6974;53.606;9.872;2022-07-29T15:01:15;26.30;99.90
13806;DHT22;6974;53.606;9.872;2022-07-29T15:03:43;26.40;99.90
13806;DHT22;6974;53.606;9.872;2022-07-29T15:06:10;26.50;99.90
13806;DHT22;6974;53.606;9.872;2022-07-29T15:08:37;26.50;99.90
13806;DHT22;6974;53.606;9.872;2022-07-29T15:11:04;26.60;99.90
13806;DHT22;6974;53.606;9.872;2022-07-29T15:13:31;26.70;99.90
13806;DHT22;6974;53.606;9.872;2022-07-29T15:15:57;26.80;99.90
13806;DHT22;6974;53.606;9.872;2022-07-29T15:18:24;26.90;99.90
13806;DHT22;6974;53.606;9.872;2022-07-29T15:20:52;27.00;99.90
13806;DHT22;6974;53.606;9.872;2022-07-29T15:23:19;27.10;99.90
13806;DHT22;6974;53.606;9.872;2022-07-29T15:25:46;27.00;99.90
13806;DHT22;6974;53.606;9.872;2022-07-29T15:28:13;26.80;99.90
13806;DHT22;6974;53.606;9.872;2022-07-29T15:30:40;26.50;99.90
13806;DHT22;6974;53.606;9.872;2022-07-29T15:33:08;26.20;99.90
13806;DHT22;6974;53.606;9.872;2022-07-29T15:35:35;26.10;99.90
13806;DHT22;6974;53.606;9.872;2022-07-29T15:38:03;26.10;99.90
13806;DHT22;6974;53.606;9.872;2022-07-29T15:40:30;26.20;99.90
13806;DHT22;6974;53.606;9.872;2022-07-29T15:42:57;26.20;99.90
13806;DHT22;6974;53.606;9.872;2022-07-29T15:45:26;26.10;99.90
13806;DHT22;6974;53.606;9.872;2022-07-29T15:47:53;26.20;99.90
13806;DHT22;6974;53.606;9.872;2022-07-29T15:50:20;26.10;99.90
13806;DHT22;6974;53.606;9.872;2022-07-29T15:52:47;26.00;99.90
13806;DHT22;6974;53.606;9.872;2022-07-29T15:55:15;25.80;99.90
13806;DHT22;6974;53.606;9.872;2022-07-29T15:57:43;25.70;99.90